sensor_id;sensor_type;location;lat;lon;timestamp;P1;durP1;ratioP1;P2;durP2;ratioP2
823;SDS011;373;49.342;8.146;2023-02-28T00:00:10;1.52;;;1.42;;
823;SDS011;373;49.342;8.146;2023-02-28T00:02:39;2.55;;;1.52;;
823;SDS011;373;49.342;8.146;2023-02-28T00:05:08;1.45;;;1.35;;
823;SDS011;373;49.342;8.146;2023-02-28T00:07:37;1.38;;;1.27;;
823;SDS011;373;49.342;8.146;2023-02-28T00:10:04;1.67;;;1.10;;
823;SDS011;373;49.342;8.146;2023-02-28T00:12:33;1.40;;;1.30;;
823;SDS011;373;49.342;8.146;2023-02-28T00:15:02;1.67;;;1.27;;
823;SDS011;373;49.342;8.146;2023-02-28T00:17:32;1.40;;;1.30;;
823;SDS011;373;49.342;8.146;2023-02-28T00:19:59;5.32;;;1.55;;
823;SDS011;373;49.342;8.146;2023-02-28T00:22:35;2.10;;;1.35;;
823;SDS011;373;49.342;8.146;2023-02-28T00:25:03;1.27;;;1.17;;
823;SDS011;373;49.342;8.146;2023-02-28T00:27:32;1.67;;;1.30;;
823;SDS011;373;49.342;8.146;2023-02-28T00:29:59;3.53;;;1.10;;
823;SDS011;373;49.342;8.146;2023-02-28T00:32:27;1.65;;;1.20;;
823;SDS011;373;49.342;8.146;2023-02-28T00:34:54;1.48;;;1.20;;
823;SDS011;373;49.342;8.146;2023-02-28T00:37:22;1.63;;;1.17;;
823;SDS011;373;49.342;8.146;2023-02-28T00:39:49;1.65;;;1.40;;
823;SDS011;373;49.342;8.146;2023-02-28T00:42:16;1.83;;;1.40;;
823;SDS011;373;49.342;8.146;2023-02-28T00:44:43;2.17;;;1.60;;
823;SDS011;373;49.342;8.146;2023-02-28T00:47:10;1.65;;;1.55;;
823;SDS011;373;49.342;8.146;2023-02-28T00:49:39;1.70;;;1.60;;
823;SDS011;373;49.342;8.146;2023-02-28T00:52:08;2.35;;;1.25;;
823;SDS011;373;49.342;8.146;2023-02-28T00:54:36;1.48;;;1.38;;
823;SDS011;373;49.342;8.146;2023-02-28T00:57:03;2.33;;;1.80;;
823;SDS011;373;49.342;8.146;2023-02-28T00:59:31;2.47;;;1.45;;
823;SDS011;373;49.342;8.146;2023-02-28T01:01:58;1.52;;;1.42;;
823;SDS011;373;49.342;8.146;2023-02-28T01:04:25;1.63;;;1.52;;
823;SDS011;373;49.342;8.146;2023-02-28T01:06:54;2.17;;;1.67;;
823;SDS011;373;49.342;8.146;2023-02-28T01:09:21;3.53;;;2.53;;
823;SDS011;373;49.342;8.146;2023-02-28T01:11:48;1.73;;;1.45;;
823;SDS011;373;49.342;8.146;2023-02-28T01:14:16;1.80;;;1.70;;
823;SDS011;373;49.342;8.146;2023-02-28T01:16:44;1.65;;;1.55;;
823;SDS011;373;49.342;8.146;2023-02-28T01:19:12;1.75;;;1.38;;
823;SDS011;373;49.342;8.146;2023-02-28T01:21:39;1.73;;;1.50;;
823;SDS011;373;49.342;8.146;2023-02-28T01:24:08;1.55;;;1.45;;
823;SDS011;373;49.342;8.146;2023-02-28T01:26:35;2.53;;;1.67;;
823;SDS011;373;49.342;8.146;2023-02-28T01:29:06;2.17;;;1.88;;
823;SDS011;373;49.342;8.146;2023-02-28T01:31:33;1.73;;;1.60;;
823;SDS011;373;49.342;8.146;2023-02-28T01:34:00;2.72;;;1.70;;
823;SDS011;373;49.342;8.146;2023-02-28T01:36:28;2.50;;;2.20;;
823;SDS011;373;49.342;8.146;2023-02-28T01:38:55;3.03;;;1.70;;
823;SDS011;373;49.342;8.146;2023-02-28T01:41:24;1.88;;;1.50;;
823;SDS011;373;49.342;8.146;2023-02-28T01:43:57;2.70;;;2.15;;
823;SDS011;373;49.342;8.146;2023-02-28T01:46:28;3.25;;;2.00;;
823;SDS011;373;49.342;8.146;2023-02-28T01:48:58;2.10;;;1.90;;
823;SDS011;373;49.342;8.146;2023-02-28T01:51:31;2.00;;;1.80;;
823;SDS011;373;49.342;8.146;2023-02-28T01:54:05;2.40;;;2.20;;
823;SDS011;373;49.342;8.146;2023-02-28T01:56:41;1.88;;;1.70;;
823;SDS011;373;49.342;8.146;2023-02-28T01:59:13;2.65;;;2.08;;
823;SDS011;373;49.342;8.146;2023-02-28T02:01:43;2.30;;;2.10;;
823;SDS011;373;49.342;8.146;2023-02-28T02:04:10;2.40;;;2.20;;
823;SDS011;373;49.342;8.146;2023-02-28T02:06:38;3.80;;;2.35;;
823;SDS011;373;49.342;8.146;2023-02-28T02:09:09;2.33;;;1.95;;
823;SDS011;373;49.342;8.146;2023-02-28T02:11:37;2.40;;;2.20;;
823;SDS011;373;49.342;8.146;2023-02-28T02:17:07;2.35;;;2.10;;
823;SDS011;373;49.342;8.146;2023-02-28T02:20:05;2.78;;;2.58;;
823;SDS011;373;49.342;8.146;2023-02-28T02:23:24;2.67;;;2.28;;
823;SDS011;373;49.342;8.146;2023-02-28T02:26:11;4.00;;;2.38;;
823;SDS011;373;49.342;8.146;2023-02-28T02:29:03;2.28;;;2.08;;
823;SDS011;373;49.342;8.146;2023-02-28T02:32:13;2.78;;;2.22;;
823;SDS011;373;49.342;8.146;2023-02-28T02:34:57;2.20;;;2.00;;
823;SDS011;373;49.342;8.146;2023-02-28T02:37:33;2.45;;;2.22;;
823;SDS011;373;49.342;8.146;2023-02-28T02:40:08;3.38;;;2.42;;
823;SDS011;373;49.342;8.146;2023-02-28T02:42:41;2.97;;;2.30;;
823;SDS011;373;49.342;8.146;2023-02-28T02:45:16;3.63;;;2.83;;
823;SDS011;373;49.342;8.146;2023-02-28T02:47:48;2.95;;;2.50;;
823;SDS011;373;49.342;8.146;2023-02-28T02:50:19;2.55;;;2.33;;
823;SDS011;373;49.342;8.146;2023-02-28T02:52:51;2.63;;;2.33;;
823;SDS011;373;49.342;8.146;2023-02-28T02:55:22;3.58;;;2.83;;
823;SDS011;373;49.342;8.146;2023-02-28T02:57:51;3.30;;;2.63;;
823;SDS011;373;49.342;8.146;2023-02-28T03:00:21;3.22;;;2.30;;
823;SDS011;373;49.342;8.146;2023-02-28T03:02:51;2.42;;;2.22;;
823;SDS011;373;49.342;8.146;2023-02-28T03:05:23;5.78;;;2.72;;
823;SDS011;373;49.342;8.146;2023-02-28T03:07:54;2.97;;;2.50;;
823;SDS011;373;49.342;8.146;2023-02-28T03:10:35;3.33;;;3.03;;
823;SDS011;373;49.342;8.146;2023-02-28T03:13:08;2.60;;;2.40;;
823;SDS011;373;49.342;8.146;2023-02-28T03:16:01;3.10;;;2.60;;
823;SDS011;373;49.342;8.146;2023-02-28T03:18:37;5.07;;;2.53;;
823;SDS011;373;49.342;8.146;2023-02-28T03:21:14;2.75;;;2.33;;
823;SDS011;373;49.342;8.146;2023-02-28T03:23:50;3.78;;;3.47;;
823;SDS011;373;49.342;8.146;2023-02-28T03:26:26;2.78;;;2.55;;
823;SDS011;373;49.342;8.146;2023-02-28T03:28:56;3.00;;;2.80;;
823;SDS011;373;49.342;8.146;2023-02-28T03:31:29;3.50;;;2.63;;
823;SDS011;373;49.342;8.146;2023-02-28T03:34:01;3.65;;;3.15;;
823;SDS011;373;49.342;8.146;2023-02-28T03:36:35;4.10;;;3.13;;
823;SDS011;373;49.342;8.146;2023-02-28T03:39:09;4.13;;;3.03;;
823;SDS011;373;49.342;8.146;2023-02-28T03:41:42;2.88;;;2.58;;
823;SDS011;373;49.342;8.146;2023-02-28T03:44:16;3.90;;;3.05;;
823;SDS011;373;49.342;8.146;2023-02-28T04:13:17;3.40;;;2.90;;
823;SDS011;373;49.342;8.146;2023-02-28T04:15:44;3.95;;;2.88;;
823;SDS011;373;49.342;8.146;2023-02-28T04:18:11;3.60;;;3.30;;
823;SDS011;373;49.342;8.146;2023-02-28T04:20:38;3.40;;;3.10;;
823;SDS011;373;49.342;8.146;2023-02-28T04:23:05;4.13;;;3.20;;
823;SDS011;373;49.342;8.146;2023-02-28T04:25:34;3.42;;;3.10;;
823;SDS011;373;49.342;8.146;2023-02-28T04:28:01;3.90;;;3.00;;
823;SDS011;373;49.342;8.146;2023-02-28T04:30:29;3.90;;;3.00;;
823;SDS011;373;49.342;8.146;2023-02-28T04:32:57;3.15;;;2.83;;
823;SDS011;373;49.342;8.146;2023-02-28T04:35:24;3.65;;;3.00;;
823;SDS011;373;49.342;8.146;2023-02-28T04:37:51;3.22;;;2.92;;
823;SDS011;373;49.342;8.146;2023-02-28T04:40:19;3.58;;;3.08;;
823;SDS011;373;49.342;8.146;2023-02-28T04:42:46;3.72;;;3.00;;
823;SDS011;373;49.342;8.146;2023-02-28T04:45:14;4.80;;;3.42;;
823;SDS011;373;49.342;8.146;2023-02-28T04:47:43;3.25;;;2.72;;
823;SDS011;373;49.342;8.146;2023-02-28T04:50:11;4.35;;;3.67;;
823;SDS011;373;49.342;8.146;2023-02-28T04:52:38;3.30;;;3.00;;
823;SDS011;373;49.342;8.146;2023-02-28T04:55:05;3.92;;;3.53;;
823;SDS011;373;49.342;8.146;2023-02-28T04:57:32;3.55;;;3.25;;
823;SDS011;373;49.342;8.146;2023-02-28T05:00:00;3.40;;;3.10;;
823;SDS011;373;49.342;8.146;2023-02-28T05:02:33;4.18;;;3.22;;
823;SDS011;373;49.342;8.146;2023-02-28T05:05:02;3.50;;;3.20;;
823;SDS011;373;49.342;8.146;2023-02-28T05:07:29;3.38;;;3.08;;
823;SDS011;373;49.342;8.146;2023-02-28T05:09:56;3.92;;;3.53;;
823;SDS011;373;49.342;8.146;2023-02-28T05:12:23;2.92;;;2.67;;
823;SDS011;373;49.342;8.146;2023-02-28T05:14:50;3.58;;;2.75;;
823;SDS011;373;49.342;8.146;2023-02-28T05:17:17;3.30;;;3.00;;
823;SDS011;373;49.342;8.146;2023-02-28T05:19:44;3.70;;;3.40;;
823;SDS011;373;49.342;8.146;2023-02-28T05:22:14;3.30;;;3.00;;
823;SDS011;373;49.342;8.146;2023-02-28T05:24:42;3.90;;;3.38;;
823;SDS011;373;49.342;8.146;2023-02-28T05:27:09;4.20;;;3.13;;
823;SDS011;373;49.342;8.146;2023-02-28T05:29:37;4.78;;;3.15;;
823;SDS011;373;49.342;8.146;2023-02-28T05:32:09;4.55;;;3.05;;
823;SDS011;373;49.342;8.146;2023-02-28T05:34:37;3.25;;;2.95;;
823;SDS011;373;49.342;8.146;2023-02-28T05:37:04;3.90;;;3.15;;
823;SDS011;373;49.342;8.146;2023-02-28T05:39:33;4.10;;;3.17;;
823;SDS011;373;49.342;8.146;2023-02-28T05:42:00;3.15;;;2.85;;
823;SDS011;373;49.342;8.146;2023-02-28T05:44:27;3.97;;;3.13;;
823;SDS011;373;49.342;8.146;2023-02-28T05:46:54;4.53;;;3.40;;
823;SDS011;373;49.342;8.146;2023-02-28T05:49:21;3.60;;;3.30;;
823;SDS011;373;49.342;8.146;2023-02-28T05:51:48;4.85;;;4.00;;
823;SDS011;373;49.342;8.146;2023-02-28T05:54:16;3.53;;;3.22;;
823;SDS011;373;49.342;8.146;2023-02-28T05:56:44;5.63;;;4.13;;
823;SDS011;373;49.342;8.146;2023-02-28T05:59:11;6.63;;;3.95;;
823;SDS011;373;49.342;8.146;2023-02-28T06:01:39;4.32;;;3.67;;
823;SDS011;373;49.342;8.146;2023-02-28T06:04:08;4.05;;;3.55;;
823;SDS011;373;49.342;8.146;2023-02-28T06:06:36;4.03;;;3.60;;
823;SDS011;373;49.342;8.146;2023-02-28T06:09:04;5.85;;;3.45;;
823;SDS011;373;49.342;8.146;2023-02-28T06:11:31;4.18;;;3.78;;
823;SDS011;373;49.342;8.146;2023-02-28T06:14:00;4.53;;;3.50;;
823;SDS011;373;49.342;8.146;2023-02-28T06:16:28;3.63;;;3.33;;
823;SDS011;373;49.342;8.146;2023-02-28T06:18:56;4.32;;;3.67;;
823;SDS011;373;49.342;8.146;2023-02-28T06:21:28;3.92;;;3.58;;
823;SDS011;373;49.342;8.146;2023-02-28T06:23:56;4.18;;;3.78;;
823;SDS011;373;49.342;8.146;2023-02-28T06:26:23;4.22;;;3.55;;
823;SDS011;373;49.342;8.146;2023-02-28T06:28:51;8.70;;;4.05;;
823;SDS011;373;49.342;8.146;2023-02-28T06:31:19;3.65;;;3.13;;
823;SDS011;373;49.342;8.146;2023-02-28T06:33:47;4.90;;;3.95;;
823;SDS011;373;49.342;8.146;2023-02-28T06:36:15;4.60;;;3.95;;
823;SDS011;373;49.342;8.146;2023-02-28T06:38:43;5.47;;;4.03;;
823;SDS011;373;49.342;8.146;2023-02-28T06:41:11;4.38;;;3.97;;
823;SDS011;373;49.342;8.146;2023-02-28T06:43:39;3.65;;;3.35;;
823;SDS011;373;49.342;8.146;2023-02-28T06:46:08;3.58;;;3.28;;
823;SDS011;373;49.342;8.146;2023-02-28T06:48:40;4.70;;;4.10;;
823;SDS011;373;49.342;8.146;2023-02-28T06:51:08;4.10;;;3.67;;
823;SDS011;373;49.342;8.146;2023-02-28T06:53:36;4.85;;;4.22;;
823;SDS011;373;49.342;8.146;2023-02-28T06:56:04;4.30;;;3.90;;
823;SDS011;373;49.342;8.146;2023-02-28T06:58:32;5.15;;;4.03;;
823;SDS011;373;49.342;8.146;2023-02-28T07:00:59;4.65;;;3.55;;
823;SDS011;373;49.342;8.146;2023-02-28T07:03:27;4.20;;;3.60;;
823;SDS011;373;49.342;8.146;2023-02-28T07:05:55;5.25;;;3.90;;
823;SDS011;373;49.342;8.146;2023-02-28T07:08:22;5.05;;;4.32;;
823;SDS011;373;49.342;8.146;2023-02-28T07:10:51;3.83;;;3.30;;
823;SDS011;373;49.342;8.146;2023-02-28T07:13:19;4.13;;;3.72;;
823;SDS011;373;49.342;8.146;2023-02-28T07:15:52;4.68;;;3.90;;
823;SDS011;373;49.342;8.146;2023-02-28T07:18:20;4.65;;;4.22;;
823;SDS011;373;49.342;8.146;2023-02-28T07:20:48;5.68;;;4.38;;
823;SDS011;373;49.342;8.146;2023-02-28T07:23:16;6.30;;;3.78;;
823;SDS011;373;49.342;8.146;2023-02-28T07:25:43;4.38;;;3.97;;
823;SDS011;373;49.342;8.146;2023-02-28T07:28:12;4.78;;;4.25;;
823;SDS011;373;49.342;8.146;2023-02-28T07:30:40;4.50;;;3.78;;
823;SDS011;373;49.342;8.146;2023-02-28T07:33:07;4.35;;;3.95;;
823;SDS011;373;49.342;8.146;2023-02-28T07:35:34;6.43;;;4.43;;
823;SDS011;373;49.342;8.146;2023-02-28T07:38:01;4.82;;;3.83;;
823;SDS011;373;49.342;8.146;2023-02-28T07:40:30;5.22;;;3.67;;
823;SDS011;373;49.342;8.146;2023-02-28T07:42:58;5.32;;;3.90;;
823;SDS011;373;49.342;8.146;2023-02-28T07:45:26;4.55;;;4.15;;
823;SDS011;373;49.342;8.146;2023-02-28T07:47:55;3.72;;;3.42;;
823;SDS011;373;49.342;8.146;2023-02-28T07:50:22;4.97;;;4.47;;
823;SDS011;373;49.342;8.146;2023-02-28T07:52:49;4.85;;;4.18;;
823;SDS011;373;49.342;8.146;2023-02-28T07:55:16;4.82;;;4.32;;
823;SDS011;373;49.342;8.146;2023-02-28T07:57:45;6.18;;;4.88;;
823;SDS011;373;49.342;8.146;2023-02-28T08:00:12;4.15;;;3.78;;
823;SDS011;373;49.342;8.146;2023-02-28T08:02:40;5.18;;;4.35;;
823;SDS011;373;49.342;8.146;2023-02-28T08:05:07;6.72;;;4.72;;
823;SDS011;373;49.342;8.146;2023-02-28T08:07:35;4.13;;;3.72;;
823;SDS011;373;49.342;8.146;2023-02-28T08:10:02;4.70;;;4.30;;
823;SDS011;373;49.342;8.146;2023-02-28T08:12:30;4.68;;;3.88;;
823;SDS011;373;49.342;8.146;2023-02-28T08:14:59;4.93;;;4.30;;
823;SDS011;373;49.342;8.146;2023-02-28T08:17:26;5.85;;;4.20;;
823;SDS011;373;49.342;8.146;2023-02-28T08:19:53;3.88;;;3.58;;
823;SDS011;373;49.342;8.146;2023-02-28T08:22:20;4.38;;;3.97;;
823;SDS011;373;49.342;8.146;2023-02-28T08:24:47;5.25;;;4.30;;
823;SDS011;373;49.342;8.146;2023-02-28T08:27:14;6.32;;;4.47;;
823;SDS011;373;49.342;8.146;2023-02-28T08:29:42;4.68;;;4.20;;
823;SDS011;373;49.342;8.146;2023-02-28T08:32:11;4.85;;;4.45;;
823;SDS011;373;49.342;8.146;2023-02-28T08:34:38;4.82;;;4.32;;
823;SDS011;373;49.342;8.146;2023-02-28T08:37:06;3.70;;;3.40;;
823;SDS011;373;49.342;8.146;2023-02-28T08:39:33;6.10;;;3.50;;
823;SDS011;373;49.342;8.146;2023-02-28T08:42:01;4.85;;;4.35;;
823;SDS011;373;49.342;8.146;2023-02-28T08:44:28;4.38;;;3.97;;
823;SDS011;373;49.342;8.146;2023-02-28T08:46:55;5.40;;;4.03;;
823;SDS011;373;49.342;8.146;2023-02-28T08:49:24;5.53;;;3.95;;
823;SDS011;373;49.342;8.146;2023-02-28T08:51:51;4.90;;;3.67;;
823;SDS011;373;49.342;8.146;2023-02-28T08:54:19;6.07;;;4.18;;
823;SDS011;373;49.342;8.146;2023-02-28T08:56:46;5.60;;;4.35;;
823;SDS011;373;49.342;8.146;2023-02-28T08:59:13;4.05;;;3.72;;
823;SDS011;373;49.342;8.146;2023-02-28T09:01:40;6.03;;;4.32;;
823;SDS011;373;49.342;8.146;2023-02-28T09:04:08;4.82;;;4.40;;
823;SDS011;373;49.342;8.146;2023-02-28T09:06:38;5.05;;;4.55;;
823;SDS011;373;49.342;8.146;2023-02-28T09:09:05;4.93;;;4.50;;
823;SDS011;373;49.342;8.146;2023-02-28T09:11:32;4.00;;;3.60;;
823;SDS011;373;49.342;8.146;2023-02-28T09:14:00;5.03;;;4.55;;
823;SDS011;373;49.342;8.146;2023-02-28T09:16:28;4.97;;;4.47;;
823;SDS011;373;49.342;8.146;2023-02-28T09:18:57;5.15;;;4.18;;
823;SDS011;373;49.342;8.146;2023-02-28T09:21:25;6.53;;;5.38;;
823;SDS011;373;49.342;8.146;2023-02-28T09:23:53;7.65;;;5.00;;
823;SDS011;373;49.342;8.146;2023-02-28T09:26:21;5.88;;;5.28;;
823;SDS011;373;49.342;8.146;2023-02-28T09:28:50;6.50;;;5.00;;
823;SDS011;373;49.342;8.146;2023-02-28T09:31:19;6.20;;;5.07;;
823;SDS011;373;49.342;8.146;2023-02-28T09:33:47;5.82;;;5.22;;
823;SDS011;373;49.342;8.146;2023-02-28T09:36:14;5.45;;;4.90;;
823;SDS011;373;49.342;8.146;2023-02-28T09:38:41;5.30;;;4.80;;
823;SDS011;373;49.342;8.146;2023-02-28T09:41:14;5.78;;;5.22;;
823;SDS011;373;49.342;8.146;2023-02-28T09:43:43;5.38;;;4.88;;
823;SDS011;373;49.342;8.146;2023-02-28T09:46:15;4.95;;;4.40;;
823;SDS011;373;49.342;8.146;2023-02-28T09:48:54;5.43;;;4.93;;
823;SDS011;373;49.342;8.146;2023-02-28T09:51:27;6.65;;;5.53;;
823;SDS011;373;49.342;8.146;2023-02-28T09:54:11;6.40;;;5.20;;
823;SDS011;373;49.342;8.146;2023-02-28T09:56:46;5.47;;;4.97;;
823;SDS011;373;49.342;8.146;2023-02-28T09:59:23;6.93;;;5.43;;
823;SDS011;373;49.342;8.146;2023-02-28T10:02:10;5.10;;;4.70;;
823;SDS011;373;49.342;8.146;2023-02-28T10:04:51;5.15;;;4.63;;
823;SDS011;373;49.342;8.146;2023-02-28T10:07:35;6.32;;;5.40;;
823;SDS011;373;49.342;8.146;2023-02-28T10:10:15;5.70;;;5.20;;
823;SDS011;373;49.342;8.146;2023-02-28T10:12:49;5.82;;;4.75;;
823;SDS011;373;49.342;8.146;2023-02-28T10:15:21;5.18;;;4.40;;
823;SDS011;373;49.342;8.146;2023-02-28T10:17:53;5.25;;;4.65;;
823;SDS011;373;49.342;8.146;2023-02-28T10:20:23;5.40;;;4.90;;
823;SDS011;373;49.342;8.146;2023-02-28T10:23:03;5.55;;;5.05;;
823;SDS011;373;49.342;8.146;2023-02-28T10:25:36;5.05;;;4.53;;
823;SDS011;373;49.342;8.146;2023-02-28T10:28:08;7.30;;;5.55;;
823;SDS011;373;49.342;8.146;2023-02-28T10:30:38;6.70;;;5.47;;
823;SDS011;373;49.342;8.146;2023-02-28T10:33:09;6.57;;;5.35;;
823;SDS011;373;49.342;8.146;2023-02-28T10:35:45;4.93;;;4.43;;
823;SDS011;373;49.342;8.146;2023-02-28T10:38:17;5.45;;;4.90;;
823;SDS011;373;49.342;8.146;2023-02-28T10:40:45;5.38;;;4.93;;
823;SDS011;373;49.342;8.146;2023-02-28T10:43:19;5.70;;;5.05;;
823;SDS011;373;49.342;8.146;2023-02-28T10:45:58;5.00;;;4.45;;
823;SDS011;373;49.342;8.146;2023-02-28T10:48:33;4.72;;;4.32;;
823;SDS011;373;49.342;8.146;2023-02-28T10:51:02;5.32;;;4.88;;
823;SDS011;373;49.342;8.146;2023-02-28T10:53:37;5.82;;;5.07;;
823;SDS011;373;49.342;8.146;2023-02-28T10:56:14;5.80;;;5.30;;
823;SDS011;373;49.342;8.146;2023-02-28T10:58:48;6.00;;;5.13;;
823;SDS011;373;49.342;8.146;2023-02-28T11:01:18;5.30;;;4.80;;
823;SDS011;373;49.342;8.146;2023-02-28T11:03:47;5.75;;;5.25;;
823;SDS011;373;49.342;8.146;2023-02-28T11:06:17;5.65;;;5.15;;
823;SDS011;373;49.342;8.146;2023-02-28T11:08:48;6.75;;;4.90;;
823;SDS011;373;49.342;8.146;2023-02-28T11:11:18;5.30;;;4.90;;
823;SDS011;373;49.342;8.146;2023-02-28T11:13:47;6.10;;;5.50;;
823;SDS011;373;49.342;8.146;2023-02-28T11:16:18;5.32;;;4.88;;
823;SDS011;373;49.342;8.146;2023-02-28T11:18:47;5.65;;;4.95;;
823;SDS011;373;49.342;8.146;2023-02-28T11:21:16;5.15;;;4.65;;
823;SDS011;373;49.342;8.146;2023-02-28T11:23:48;5.30;;;4.80;;
823;SDS011;373;49.342;8.146;2023-02-28T11:29:09;6.22;;;5.63;;
823;SDS011;373;49.342;8.146;2023-02-28T11:31:38;5.82;;;5.25;;
823;SDS011;373;49.342;8.146;2023-02-28T11:36:49;5.15;;;4.75;;
823;SDS011;373;49.342;8.146;2023-02-28T11:39:19;6.72;;;5.78;;
823;SDS011;373;49.342;8.146;2023-02-28T11:41:52;6.65;;;4.80;;
823;SDS011;373;49.342;8.146;2023-02-28T11:44:39;6.47;;;5.38;;
823;SDS011;373;49.342;8.146;2023-02-28T11:47:23;7.88;;;5.72;;
823;SDS011;373;49.342;8.146;2023-02-28T11:50:01;5.20;;;4.70;;
823;SDS011;373;49.342;8.146;2023-02-28T11:52:40;5.15;;;4.75;;
823;SDS011;373;49.342;8.146;2023-02-28T11:55:16;6.13;;;5.03;;
823;SDS011;373;49.342;8.146;2023-02-28T11:57:49;5.35;;;4.85;;
823;SDS011;373;49.342;8.146;2023-02-28T12:00:36;6.63;;;4.78;;
823;SDS011;373;49.342;8.146;2023-02-28T12:03:14;7.47;;;5.47;;
823;SDS011;373;49.342;8.146;2023-02-28T12:05:52;5.75;;;5.25;;
823;SDS011;373;49.342;8.146;2023-02-28T12:08:31;5.75;;;5.25;;
823;SDS011;373;49.342;8.146;2023-02-28T12:11:12;6.43;;;5.82;;
823;SDS011;373;49.342;8.146;2023-02-28T12:13:47;7.60;;;5.70;;
823;SDS011;373;49.342;8.146;2023-02-28T12:16:29;5.47;;;4.85;;
823;SDS011;373;49.342;8.146;2023-02-28T12:19:13;6.70;;;6.00;;
823;SDS011;373;49.342;8.146;2023-02-28T12:21:53;5.88;;;5.25;;
823;SDS011;373;49.342;8.146;2023-02-28T12:24:49;7.63;;;5.95;;
823;SDS011;373;49.342;8.146;2023-02-28T12:27:36;5.97;;;5.35;;
823;SDS011;373;49.342;8.146;2023-02-28T12:30:09;5.75;;;5.22;;
823;SDS011;373;49.342;8.146;2023-02-28T12:32:44;6.80;;;5.40;;
823;SDS011;373;49.342;8.146;2023-02-28T12:35:14;6.85;;;5.72;;
823;SDS011;373;49.342;8.146;2023-02-28T12:37:46;6.63;;;5.22;;
823;SDS011;373;49.342;8.146;2023-02-28T12:40:20;5.85;;;4.95;;
823;SDS011;373;49.342;8.146;2023-02-28T12:42:51;7.35;;;5.72;;
823;SDS011;373;49.342;8.146;2023-02-28T12:45:20;5.68;;;4.95;;
823;SDS011;373;49.342;8.146;2023-02-28T12:47:50;6.95;;;5.00;;
823;SDS011;373;49.342;8.146;2023-02-28T12:50:23;6.35;;;5.75;;
823;SDS011;373;49.342;8.146;2023-02-28T12:52:53;6.90;;;5.43;;
823;SDS011;373;49.342;8.146;2023-02-28T12:55:27;5.80;;;5.20;;
823;SDS011;373;49.342;8.146;2023-02-28T12:58:05;7.20;;;5.65;;
823;SDS011;373;49.342;8.146;2023-02-28T13:00:43;5.60;;;5.00;;
823;SDS011;373;49.342;8.146;2023-02-28T13:03:29;6.95;;;6.10;;
823;SDS011;373;49.342;8.146;2023-02-28T13:06:40;7.10;;;6.05;;
823;SDS011;373;49.342;8.146;2023-02-28T13:09:19;6.50;;;5.90;;
823;SDS011;373;49.342;8.146;2023-02-28T13:11:47;5.85;;;5.35;;
823;SDS011;373;49.342;8.146;2023-02-28T13:14:20;5.68;;;5.18;;
823;SDS011;373;49.342;8.146;2023-02-28T13:16:54;7.05;;;5.45;;
823;SDS011;373;49.342;8.146;2023-02-28T13:19:30;7.35;;;5.78;;
823;SDS011;373;49.342;8.146;2023-02-28T13:21:58;6.13;;;5.53;;
823;SDS011;373;49.342;8.146;2023-02-28T13:33:24;6.65;;;5.90;;
823;SDS011;373;49.342;8.146;2023-02-28T13:36:21;11.57;;;6.90;;
823;SDS011;373;49.342;8.146;2023-02-28T13:38:51;6.13;;;5.53;;
823;SDS011;373;49.342;8.146;2023-02-28T13:44:12;6.30;;;5.70;;
823;SDS011;373;49.342;8.146;2023-02-28T13:49:50;6.50;;;5.82;;
823;SDS011;373;49.342;8.146;2023-02-28T13:52:18;6.35;;;5.75;;
823;SDS011;373;49.342;8.146;2023-02-28T13:54:52;6.55;;;6.05;;
823;SDS011;373;49.342;8.146;2023-02-28T13:57:42;7.30;;;6.60;;
823;SDS011;373;49.342;8.146;2023-02-28T14:00:25;6.97;;;6.25;;
823;SDS011;373;49.342;8.146;2023-02-28T14:03:05;6.63;;;6.03;;
823;SDS011;373;49.342;8.146;2023-02-28T14:05:40;6.80;;;6.20;;
823;SDS011;373;49.342;8.146;2023-02-28T14:08:11;6.57;;;5.82;;
823;SDS011;373;49.342;8.146;2023-02-28T14:10:44;6.15;;;5.57;;
823;SDS011;373;49.342;8.146;2023-02-28T14:16:09;8.98;;;6.32;;
823;SDS011;373;49.342;8.146;2023-02-28T14:18:37;8.10;;;6.72;;
823;SDS011;373;49.342;8.146;2023-02-28T14:21:13;6.63;;;5.95;;
823;SDS011;373;49.342;8.146;2023-02-28T14:27:04;6.20;;;5.60;;
823;SDS011;373;49.342;8.146;2023-02-28T14:29:43;6.80;;;6.15;;
823;SDS011;373;49.342;8.146;2023-02-28T14:32:35;7.60;;;6.10;;
823;SDS011;373;49.342;8.146;2023-02-28T14:35:13;7.20;;;6.50;;
823;SDS011;373;49.342;8.146;2023-02-28T14:37:50;7.25;;;6.55;;
823;SDS011;373;49.342;8.146;2023-02-28T14:40:19;8.75;;;6.50;;
823;SDS011;373;49.342;8.146;2023-02-28T14:42:54;6.82;;;6.15;;
823;SDS011;373;49.342;8.146;2023-02-28T14:45:23;7.57;;;6.65;;
823;SDS011;373;49.342;8.146;2023-02-28T14:47:50;7.55;;;6.53;;
823;SDS011;373;49.342;8.146;2023-02-28T14:50:19;7.35;;;6.65;;
823;SDS011;373;49.342;8.146;2023-02-28T14:52:50;7.60;;;6.90;;
823;SDS011;373;49.342;8.146;2023-02-28T14:55:22;7.45;;;6.75;;
823;SDS011;373;49.342;8.146;2023-02-28T14:57:52;6.53;;;5.93;;
823;SDS011;373;49.342;8.146;2023-02-28T15:00:21;7.35;;;6.65;;
823;SDS011;373;49.342;8.146;2023-02-28T15:02:51;8.10;;;6.55;;
823;SDS011;373;49.342;8.146;2023-02-28T15:05:25;6.90;;;6.28;;
823;SDS011;373;49.342;8.146;2023-02-28T15:08:02;7.88;;;6.97;;
823;SDS011;373;49.342;8.146;2023-02-28T15:10:32;7.75;;;6.95;;
823;SDS011;373;49.342;8.146;2023-02-28T15:13:00;9.27;;;7.45;;
823;SDS011;373;49.342;8.146;2023-02-28T15:15:41;7.43;;;6.70;;
823;SDS011;373;49.342;8.146;2023-02-28T15:18:14;7.30;;;6.50;;
823;SDS011;373;49.342;8.146;2023-02-28T15:20:47;7.95;;;6.75;;
823;SDS011;373;49.342;8.146;2023-02-28T15:23:17;7.13;;;6.43;;
823;SDS011;373;49.342;8.146;2023-02-28T15:25:45;7.45;;;6.75;;
823;SDS011;373;49.342;8.146;2023-02-28T15:28:14;6.90;;;6.07;;
823;SDS011;373;49.342;8.146;2023-02-28T15:30:51;7.95;;;6.68;;
823;SDS011;373;49.342;8.146;2023-02-28T15:33:24;7.55;;;6.82;;
823;SDS011;373;49.342;8.146;2023-02-28T15:36:03;8.10;;;7.30;;
823;SDS011;373;49.342;8.146;2023-02-28T15:38:42;6.95;;;6.25;;
823;SDS011;373;49.342;8.146;2023-02-28T15:41:20;7.57;;;6.25;;
823;SDS011;373;49.342;8.146;2023-02-28T15:47:00;7.05;;;6.35;;
823;SDS011;373;49.342;8.146;2023-02-28T15:49:32;6.90;;;6.20;;
823;SDS011;373;49.342;8.146;2023-02-28T15:52:04;7.35;;;6.63;;
823;SDS011;373;49.342;8.146;2023-02-28T15:54:33;7.30;;;6.60;;
823;SDS011;373;49.342;8.146;2023-02-28T15:57:03;7.80;;;6.40;;
823;SDS011;373;49.342;8.146;2023-02-28T15:59:33;7.28;;;6.53;;
823;SDS011;373;49.342;8.146;2023-02-28T16:02:13;8.45;;;6.88;;
823;SDS011;373;49.342;8.146;2023-02-28T16:04:56;8.18;;;6.75;;
823;SDS011;373;49.342;8.146;2023-02-28T16:07:24;7.60;;;6.45;;
823;SDS011;373;49.342;8.146;2023-02-28T16:09:53;6.53;;;5.95;;
823;SDS011;373;49.342;8.146;2023-02-28T16:12:20;7.22;;;6.53;;
823;SDS011;373;49.342;8.146;2023-02-28T16:14:52;7.43;;;6.72;;
823;SDS011;373;49.342;8.146;2023-02-28T16:17:23;6.85;;;6.22;;
823;SDS011;373;49.342;8.146;2023-02-28T16:19:52;7.35;;;6.65;;
823;SDS011;373;49.342;8.146;2023-02-28T16:22:19;7.38;;;6.68;;
823;SDS011;373;49.342;8.146;2023-02-28T16:24:46;7.90;;;6.63;;
823;SDS011;373;49.342;8.146;2023-02-28T16:27:16;8.05;;;7.20;;
823;SDS011;373;49.342;8.146;2023-02-28T16:29:46;7.65;;;6.95;;
823;SDS011;373;49.342;8.146;2023-02-28T16:32:15;9.65;;;7.45;;
823;SDS011;373;49.342;8.146;2023-02-28T16:34:42;6.45;;;5.90;;
823;SDS011;373;49.342;8.146;2023-02-28T16:37:11;7.97;;;7.25;;
823;SDS011;373;49.342;8.146;2023-02-28T16:39:40;8.23;;;7.25;;
823;SDS011;373;49.342;8.146;2023-02-28T16:42:10;7.78;;;7.07;;
823;SDS011;373;49.342;8.146;2023-02-28T16:44:43;7.75;;;7.05;;
823;SDS011;373;49.342;8.146;2023-02-28T16:47:10;10.00;;;7.57;;
823;SDS011;373;49.342;8.146;2023-02-28T16:49:38;8.55;;;7.43;;
823;SDS011;373;49.342;8.146;2023-02-28T16:52:07;9.13;;;8.05;;
823;SDS011;373;49.342;8.146;2023-02-28T16:54:34;7.75;;;6.95;;
823;SDS011;373;49.342;8.146;2023-02-28T16:57:02;8.75;;;7.43;;
823;SDS011;373;49.342;8.146;2023-02-28T16:59:29;8.88;;;7.82;;
823;SDS011;373;49.342;8.146;2023-02-28T17:01:58;8.90;;;8.00;;
823;SDS011;373;49.342;8.146;2023-02-28T17:04:25;7.90;;;7.10;;
823;SDS011;373;49.342;8.146;2023-02-28T17:06:53;8.38;;;7.53;;
823;SDS011;373;49.342;8.146;2023-02-28T17:09:21;9.60;;;7.65;;